Time;durP1;ratioP1;P1;durP2;ratioP2;P2;SDS_P1;SDS_P2;PMS_P1;PMS_P2;Temp;Humidity;BMP_temperature;BMP_pressure;BME280_temperature;BME280_humidity;BME280_pressure;Samples;Min_cycle;Max_cycle;Signal;HPM_P1;HPM_P2
2022/11/11 00:01:12;;;;;;;28.17;15.85;;;16.90;61.80;;;;;;5096456;28;20020;-86
2022/11/11 00:03:37;;;;;;;29.15;15.40;;;16.50;62.40;;;;;;5079437;28;20033;-83
2022/11/11 00:06:06;;;;;;;28.70;15.82;;;16.30;63.30;;;;;;5091136;28;20346;-92
2022/11/11 00:08:32;;;;;;;25.40;14.77;;;16.50;63.00;;;;;;5076474;28;20115;-87
2022/11/11 00:11:10;;;;;;;25.80;15.50;;;16.40;62.90;;;;;;5080867;28;20028;-89
2022/11/11 00:13:37;;;;;;;26.67;15.48;;;16.60;62.70;;;;;;5096303;28;20476;-89
2022/11/11 00:16:21;;;;;;;23.65;14.82;;;16.60;62.20;;;;;;5095958;28;20027;-88
2022/11/11 00:27:16;;;;;;;23.77;14.30;;;16.70;62.40;;;;;;5099762;28;20104;-85
2022/11/11 00:29:48;;;;;;;26.90;15.13;;;16.70;61.80;;;;;;5082854;28;20024;-89
2022/11/11 00:32:26;;;;;;;23.05;14.55;;;16.70;61.70;;;;;;5087550;28;20516;-91
2022/11/11 00:37:47;;;;;;;27.35;16.20;;;16.80;61.80;;;;;;5080444;28;20031;-95
2022/11/11 00:40:14;;;;;;;28.73;15.32;;;16.90;62.00;;;;;;5082251;28;20480;-92
2022/11/11 00:42:40;;;;;;;28.83;15.45;;;16.90;61.80;;;;;;5082834;28;20419;-89
2022/11/11 00:45:17;;;;;;;23.83;14.77;;;16.90;61.60;;;;;;5079886;28;20040;-91
2022/11/11 00:53:26;;;;;;;26.63;15.25;;;16.50;62.30;;;;;;5078090;28;20523;-86
2022/11/11 00:55:52;;;;;;;28.17;15.82;;;16.50;62.40;;;;;;5080786;28;20044;-85
2022/11/11 00:58:18;;;;;;;26.60;15.48;;;16.60;62.40;;;;;;5093898;28;20028;-88
2022/11/11 01:00:44;;;;;;;26.98;15.48;;;16.60;62.30;;;;;;5095528;28;20016;-96
2022/11/11 01:03:12;;;;;;;27.73;15.77;;;16.70;62.00;;;;;;5075899;28;20112;-90
2022/11/11 01:05:38;;;;;;;23.58;14.43;;;16.90;61.70;;;;;;5091454;28;20069;-90
2022/11/11 01:08:14;;;;;;;26.50;15.85;;;17.00;61.30;;;;;;5077918;28;20020;-89
2022/11/11 01:10:43;;;;;;;29.45;16.80;;;17.00;61.00;;;;;;5099206;22;20079;-91
2022/11/11 01:13:35;;;;;;;29.27;17.05;;;17.10;61.20;;;;;;5080782;28;20051;-87
2022/11/11 01:16:38;;;;;;;27.00;16.05;;;17.20;60.60;;;;;;5062552;28;20028;-90
2022/11/11 01:19:03;;;;;;;27.35;15.13;;;17.10;60.50;;;;;;5058684;28;20040;-87
2022/11/11 01:21:30;;;;;;;29.92;16.35;;;17.00;61.10;;;;;;5073698;28;20023;-89
2022/11/11 01:24:09;;;;;;;27.38;16.52;;;17.10;61.20;;;;;;5070428;28;20025;-89
2022/11/11 01:26:44;;;;;;;30.55;15.90;;;17.10;61.10;;;;;;5085455;28;20024;-91
2022/11/11 01:29:28;;;;;;;31.13;16.20;;;16.80;61.40;;;;;;5064274;28;20028;-90
2022/11/11 01:31:56;;;;;;;27.35;16.45;;;16.80;61.60;;;;;;5077100;28;20028;-88
2022/11/11 01:34:22;;;;;;;26.88;15.82;;;16.80;61.30;;;;;;5062924;28;20051;-93
2022/11/11 01:36:47;;;;;;;32.20;15.82;;;16.70;61.60;;;;;;5077696;28;20020;-85
2022/11/11 01:39:13;;;;;;;30.88;15.45;;;16.60;61.70;;;;;;5075884;28;20120;-88
2022/11/11 01:41:39;;;;;;;29.02;16.38;;;16.50;62.20;;;;;;5061523;28;20025;-91
2022/11/11 01:44:10;;;;;;;30.52;17.13;;;16.60;62.10;;;;;;5084953;28;20020;-84
2022/11/11 01:46:44;;;;;;;30.52;15.60;;;16.70;61.90;;;;;;5097747;28;20015;-80
2022/11/11 01:49:38;;;;;;;28.08;15.52;;;16.70;61.50;;;;;;5086793;28;20028;-90
2022/11/11 01:52:29;;;;;;;27.45;15.93;;;16.60;62.30;;;;;;5075288;28;20031;-88
2022/11/11 01:55:08;;;;;;;30.38;17.10;;;16.50;62.20;;;;;;5074396;28;20019;-93
2022/11/11 01:57:55;;;;;;;27.33;16.10;;;16.30;62.10;;;;;;5076688;28;20028;-90
2022/11/11 02:00:21;;;;;;;32.10;16.17;;;16.10;62.80;;;;;;5083433;28;20019;-88
2022/11/11 02:03:29;;;;;;;32.88;17.40;;;15.70;63.30;;;;;;5082878;28;20024;-93
2022/11/11 02:06:03;;;;;;;28.60;17.50;;;15.50;64.60;;;;;;4976995;28;20053;-89
2022/11/11 02:08:39;;;;;;;32.17;17.80;;;15.60;63.60;;;;;;4977198;28;20026;-92
2022/11/11 02:17:07;;;;;;;33.78;19.52;;;15.10;64.40;;;;;;4988605;28;20049;-92
2022/11/11 02:19:57;;;;;;;33.72;18.67;;;14.90;64.80;;;;;;4975764;28;20037;-92
2022/11/11 02:22:53;;;;;;;36.50;19.30;;;15.00;64.70;;;;;;4977383;28;20023;-91
2022/11/11 02:25:33;;;;;;;34.17;18.60;;;14.80;65.70;;;;;;4966759;28;20058;-91
2022/11/11 02:31:46;;;;;;;33.20;17.88;;;15.10;64.80;;;;;;4868890;29;20048;-94
2022/11/11 02:34:52;;;;;;;35.72;18.77;;;15.30;64.70;;;;;;4900008;29;20029;-92
2022/11/11 02:37:21;;;;;;;33.33;17.92;;;15.40;64.50;;;;;;4972265;28;20145;-94
2022/11/11 02:40:13;;;;;;;33.03;18.33;;;15.60;63.80;;;;;;5013815;28;20034;-92
2022/11/11 02:42:48;;;;;;;33.67;17.73;;;15.60;64.10;;;;;;4980814;28;20088;-91
2022/11/11 02:48:33;;;;;;;40.28;19.10;;;15.30;64.30;;;;;;4917069;29;20036;-88
2022/11/11 02:50:59;;;;;;;;;;;15.30;63.80;;;;;;4918403;29;20103;-87
2022/11/11 02:53:57;;;;;;;39.15;18.85;;;15.20;64.40;;;;;;4903707;29;20398;-90
2022/11/11 02:57:16;;;;;;;33.58;18.67;;;15.20;64.60;;;;;;4867154;29;20044;-92
2022/11/11 02:59:42;;;;;;;36.92;19.25;;;15.30;64.60;;;;;;4879465;29;20072;-90
2022/11/11 03:02:10;;;;;;;41.72;20.70;;;15.40;63.80;;;;;;4864923;29;20173;-91
2022/11/11 03:04:37;;;;;;;36.15;19.13;;;15.30;63.70;;;;;;4880143;29;20049;-91
2022/11/11 03:07:06;;;;;;;40.42;21.17;;;15.30;63.90;;;;;;4886843;29;20485;-89
2022/11/11 03:09:32;;;;;;;40.87;21.37;;;15.40;63.70;;;;;;4884622;29;20132;-89
2022/11/11 03:11:58;;;;;;;41.53;20.10;;;15.20;64.00;;;;;;4898389;29;20076;-92
2022/11/11 03:14:24;;;;;;;40.05;21.40;;;15.10;64.70;;;;;;4899135;29;20402;-89
2022/11/11 03:19:36;;;;;;;44.42;21.83;;;14.80;65.10;;;;;;4900412;29;20092;-88
2022/11/11 03:22:05;;;;;;;52.45;25.27;;;14.70;65.80;;;;;;4886088;29;20032;-91
2022/11/11 03:27:17;;;;;;;48.92;23.77;;;14.50;66.70;;;;;;4960084;29;20014;-91
2022/11/11 03:29:45;;;;;;;47.03;22.98;;;14.50;66.60;;;;;;4943645;29;20027;-86
2022/11/11 03:32:11;;;;;;;49.42;23.83;;;14.50;66.90;;;;;;4978953;28;20029;-91
2022/11/11 03:34:37;;;;;;;41.50;21.60;;;14.60;65.90;;;;;;5010566;28;20093;-89
2022/11/11 03:39:49;;;;;;;65.55;26.50;;;14.70;65.90;;;;;;5093299;28;20051;-92
2022/11/11 03:42:15;;;;;;;48.47;24.45;;;14.50;66.40;;;;;;5075593;28;20020;-88
2022/11/11 03:44:40;;;;;;;71.55;27.08;;;14.40;67.00;;;;;;5078521;28;20082;-93
2022/11/11 03:47:09;;;;;;;50.70;23.55;;;14.30;66.60;;;;;;5082707;28;20492;-88
2022/11/11 03:49:35;;;;;;;61.95;25.90;;;14.30;67.20;;;;;;5087385;28;20031;-89
2022/11/11 03:52:03;;;;;;;48.35;23.60;;;14.30;66.70;;;;;;5096883;28;20048;-88
2022/11/11 03:54:28;;;;;;;47.58;23.52;;;14.50;66.50;;;;;;5085185;28;20047;-87
2022/11/11 03:57:29;;;;;;;46.50;24.10;;;14.80;65.40;;;;;;5096325;28;20024;-92
2022/11/11 03:59:42;;;;;;;42.42;22.35;;;14.80;65.40;;;;;;5078870;28;20032;-87
2022/11/11 04:10:29;;;;;;;41.95;21.77;;;14.40;66.10;;;;;;5075135;28;20114;-89
2022/11/11 04:23:55;;;;;;;54.70;24.80;;;14.00;66.60;;;;;;5097169;28;20039;-89
2022/11/11 04:26:21;;;;;;;50.45;24.45;;;14.20;66.00;;;;;;5085547;28;20016;-89
2022/11/11 04:32:34;;;;;;;47.65;22.70;;;14.50;65.50;;;;;;5078440;28;20035;-87
2022/11/11 04:34:27;;;;;;;42.42;21.80;;;14.50;65.20;;;;;;5087335;28;20040;-86
2022/11/11 04:36:53;;;;;;;46.35;23.05;;;14.50;65.50;;;;;;5098125;28;20035;-89
2022/11/11 04:42:07;;;;;;;46.53;22.25;;;14.50;65.20;;;;;;5016594;28;20105;-86
2022/11/11 04:47:21;;;;;;;37.22;21.33;;;14.30;65.40;;;;;;5027506;28;20040;-85
2022/11/11 04:49:47;;;;;;;44.42;22.70;;;14.20;65.80;;;;;;5019241;28;20030;-91
2022/11/11 04:52:25;;;;;;;48.00;22.95;;;14.00;66.30;;;;;;5032526;28;20105;-92
2022/11/11 04:57:42;;;;;;;43.33;22.40;;;14.00;67.00;;;;;;5038868;28;20068;-87
2022/11/11 05:00:11;;;;;;;69.97;26.40;;;14.10;66.50;;;;;;5014139;28;20600;-89
2022/11/11 05:05:23;;;;;;;40.55;22.67;;;13.90;66.50;;;;;;5035145;28;20103;-90
2022/11/11 05:10:32;;;;;;;48.63;24.20;;;13.80;67.00;;;;;;5030230;28;20115;-87
2022/11/11 05:21:24;;;;;;;69.32;25.33;;;13.40;68.40;;;;;;5077011;28;20150;-86
2022/11/11 05:26:35;;;;;;;64.78;25.42;;;13.30;69.20;;;;;;5084382;28;20066;-86
2022/11/11 05:29:01;;;;;;;56.47;24.05;;;13.40;68.60;;;;;;5075278;28;20028;-87
2022/11/11 05:31:28;;;;;;;42.00;22.48;;;13.50;68.50;;;;;;5076186;28;20021;-92
2022/11/11 05:33:54;;;;;;;62.63;24.90;;;13.70;68.20;;;;;;5075886;28;20393;-93
2022/11/11 05:36:20;;;;;;;43.10;23.80;;;13.80;67.20;;;;;;5094979;28;20035;-91
2022/11/11 05:38:45;;;;;;;50.63;24.25;;;13.60;68.10;;;;;;5087669;28;20040;-90
2022/11/11 05:41:11;;;;;;;58.28;26.95;;;13.70;68.00;;;;;;5083561;28;20024;-92
2022/11/11 05:43:37;;;;;;;67.45;30.52;;;13.90;67.50;;;;;;5091229;28;20040;-93
2022/11/11 05:46:03;;;;;;;56.95;27.23;;;14.10;67.00;;;;;;5074932;28;20501;-90
2022/11/11 05:48:30;;;;;;;63.10;27.30;;;14.30;66.70;;;;;;5075059;28;20046;-93
2022/11/11 05:50:59;;;;;;;68.93;26.60;;;14.30;65.80;;;;;;5075328;28;20138;-87
2022/11/11 05:53:25;;;;;;;46.88;23.48;;;14.00;66.20;;;;;;5074561;28;20430;-92
2022/11/11 05:55:51;;;;;;;108.32;34.85;;;14.00;67.10;;;;;;5074001;28;20521;-85
2022/11/11 05:58:19;;;;;;;53.78;24.40;;;14.00;67.20;;;;;;5073774;28;20044;-85
2022/11/11 06:00:45;;;;;;;49.00;25.85;;;13.90;67.70;;;;;;5077255;28;20020;-85
2022/11/11 06:03:11;;;;;;;49.78;24.60;;;13.90;67.40;;;;;;5093767;28;20127;-85
2022/11/11 06:05:40;;;;;;;65.65;24.73;;;14.00;67.80;;;;;;5093704;28;20024;-86
2022/11/11 06:08:06;;;;;;;76.03;24.60;;;14.20;66.60;;;;;;5093765;28;20032;-91
2022/11/11 06:10:32;;;;;;;52.15;24.10;;;14.10;66.30;;;;;;5094185;28;20056;-88
2022/11/11 06:13:01;;;;;;;83.18;28.08;;;14.10;67.30;;;;;;5087586;28;20119;-87
2022/11/11 06:15:37;;;;;;;46.10;23.10;;;14.30;66.20;;;;;;5074363;28;20056;-87
2022/11/11 06:18:04;;;;;;;70.70;25.80;;;14.40;66.30;;;;;;5084132;28;20028;-87
2022/11/11 06:20:30;;;;;;;102.15;29.63;;;14.40;65.80;;;;;;5079774;28;20025;-93
2022/11/11 06:22:57;;;;;;;50.45;24.08;;;14.20;66.30;;;;;;5076517;28;20385;-91
2022/11/11 06:28:12;;;;;;;66.80;26.98;;;13.80;68.10;;;;;;5092812;28;20400;-90
2022/11/11 06:30:38;;;;;;;73.80;27.38;;;14.20;67.40;;;;;;5084069;28;20484;-92
2022/11/11 06:33:06;;;;;;;71.55;25.65;;;14.30;66.70;;;;;;5073756;28;20028;-86
2022/11/11 06:35:33;;;;;;;54.13;25.75;;;14.30;67.00;;;;;;5074820;28;20028;-84
2022/11/11 06:37:59;;;;;;;55.40;25.70;;;14.50;67.10;;;;;;5081249;28;20032;-86
2022/11/11 06:40:24;;;;;;;87.18;27.20;;;14.80;66.30;;;;;;5092039;28;20028;-85
2022/11/11 06:42:50;;;;;;;57.55;24.77;;;15.00;65.40;;;;;;5080273;28;20034;-81
2022/11/11 06:45:16;;;;;;;58.03;25.27;;;15.10;65.60;;;;;;5073568;28;20469;-89
2022/11/11 06:47:42;;;;;;;43.60;24.35;;;14.90;65.70;;;;;;5073464;28;20434;-88
2022/11/11 06:50:08;;;;;;;51.08;26.20;;;15.00;66.20;;;;;;5091699;28;20578;-85
2022/11/11 06:52:34;;;;;;;51.95;24.58;;;14.90;66.20;;;;;;5093171;28;20420;-84
2022/11/11 06:55:00;;;;;;;66.35;27.08;;;14.70;66.30;;;;;;5084685;28;20016;-90
2022/11/11 06:57:25;;;;;;;74.50;27.77;;;14.60;67.10;;;;;;5073473;28;20032;-85
2022/11/11 06:59:51;;;;;;;92.00;27.83;;;14.90;66.70;;;;;;5072536;28;20032;-91
2022/11/11 07:02:17;;;;;;;57.10;25.92;;;15.00;66.00;;;;;;5081641;28;20486;-90
2022/11/11 07:04:42;;;;;;;58.17;25.70;;;15.30;65.80;;;;;;5084578;28;20016;-88
2022/11/11 07:07:08;;;;;;;89.47;28.42;;;15.20;65.50;;;;;;5084820;28;20469;-87
2022/11/11 07:09:34;;;;;;;68.93;25.17;;;15.10;65.80;;;;;;5073808;28;20072;-89
2022/11/11 07:12:00;;;;;;;80.03;27.80;;;15.10;65.90;;;;;;5080898;28;20031;-93
2022/11/11 07:14:26;;;;;;;50.53;23.80;;;15.30;66.20;;;;;;5081806;28;20098;-86
2022/11/11 07:16:52;;;;;;;48.83;22.73;;;15.30;65.40;;;;;;5093246;28;20038;-87
2022/11/11 07:19:17;;;;;;;61.30;24.75;;;15.10;66.00;;;;;;5079704;28;20028;-90
2022/11/11 07:21:43;;;;;;;65.07;24.73;;;14.90;66.30;;;;;;5073108;28;20021;-86
2022/11/11 07:24:09;;;;;;;73.88;25.23;;;14.70;66.40;;;;;;5073316;28;20339;-82
2022/11/11 07:26:34;;;;;;;56.67;24.27;;;14.90;67.10;;;;;;5080413;28;20027;-90
2022/11/11 07:29:00;;;;;;;47.35;23.35;;;14.90;66.50;;;;;;5084540;28;20028;-89
2022/11/11 07:31:26;;;;;;;42.78;23.45;;;15.10;66.30;;;;;;5081118;28;20032;-90
2022/11/11 07:33:53;;;;;;;50.78;23.92;;;15.30;65.20;;;;;;5086476;28;20020;-92
2022/11/11 07:36:18;;;;;;;52.55;25.50;;;15.40;65.70;;;;;;5076302;28;20051;-89
2022/11/11 07:38:47;;;;;;;38.55;22.38;;;15.80;64.90;;;;;;5082571;28;20032;-87
2022/11/11 07:41:12;;;;;;;43.05;23.60;;;15.90;64.30;;;;;;5087063;28;20032;-88
2022/11/11 07:43:38;;;;;;;48.40;25.25;;;15.80;64.30;;;;;;5093429;28;20384;-93
2022/11/11 07:46:04;;;;;;;41.67;25.60;;;15.70;64.90;;;;;;5094995;28;20024;-94
2022/11/11 07:48:30;;;;;;;47.40;24.88;;;15.80;65.00;;;;;;5087828;28;20083;-86
2022/11/11 07:50:56;;;;;;;48.90;25.90;;;15.80;65.10;;;;;;5074833;28;20029;-91
2022/11/11 07:53:21;;;;;;;38.25;23.92;;;15.70;64.90;;;;;;5083413;28;20027;-91
2022/11/11 07:55:47;;;;;;;52.20;26.23;;;15.90;65.80;;;;;;5076723;28;20020;-81
2022/11/11 07:58:13;;;;;;;36.05;22.80;;;16.20;64.30;;;;;;5073577;28;20036;-84
2022/11/11 08:00:39;;;;;;;56.03;26.13;;;16.00;64.90;;;;;;5073897;28;20098;-94
2022/11/11 08:03:06;;;;;;;39.20;24.42;;;16.20;64.30;;;;;;5074524;28;20033;-93
2022/11/11 08:05:32;;;;;;;46.67;25.20;;;16.00;65.30;;;;;;5077820;28;20037;-90
2022/11/11 08:08:14;;;;;;;40.95;23.77;;;16.20;65.00;;;;;;5077410;28;20047;-88
2022/11/11 08:10:40;;;;;;;42.35;23.30;;;16.30;65.00;;;;;;5078108;28;20048;-92
2022/11/11 08:15:51;;;;;;;35.88;21.90;;;16.40;64.70;;;;;;5101345;28;20043;-87
2022/11/11 08:18:17;;;;;;;37.67;21.45;;;16.70;64.30;;;;;;5098504;28;20038;-93
2022/11/11 08:20:48;;;;;;;38.05;23.25;;;17.10;63.60;;;;;;5098273;28;20020;-84
2022/11/11 08:23:16;;;;;;;31.00;20.48;;;17.40;62.80;;;;;;5101291;28;20024;-84
2022/11/11 08:25:41;;;;;;;38.22;23.08;;;17.70;62.20;;;;;;5083697;28;20024;-85
2022/11/11 08:28:08;;;;;;;35.30;21.98;;;17.30;62.40;;;;;;5077370;28;20035;-87
2022/11/11 08:30:34;;;;;;;36.17;21.65;;;16.90;62.80;;;;;;5080827;28;20031;-92
2022/11/11 08:33:04;;;;;;;31.05;19.33;;;16.60;63.60;;;;;;5078719;28;20064;-81
2022/11/11 08:35:30;;;;;;;;;;;16.80;63.40;;;;;;5076368;28;20028;-85
2022/11/11 08:38:03;;;;;;;28.95;17.92;;;17.70;62.20;;;;;;5077519;28;19935;-86
2022/11/11 08:40:29;;;;;;;25.48;17.33;;;19.10;60.60;;;;;;5080461;28;20027;-91
2022/11/11 08:42:56;;;;;;;25.27;17.63;;;20.50;57.50;;;;;;5077731;28;20119;-85
2022/11/11 08:45:23;;;;;;;29.13;18.88;;;21.50;56.00;;;;;;5076040;28;20028;-85
2022/11/11 08:47:48;;;;;;;30.23;18.52;;;22.00;54.70;;;;;;5075548;28;20051;-87
2022/11/11 08:50:20;;;;;;;27.88;18.33;;;22.00;54.10;;;;;;5075081;28;20377;-88
2022/11/11 08:52:54;;;;;;;30.67;19.25;;;22.00;54.30;;;;;;5075228;28;20397;-87
2022/11/11 08:55:20;;;;;;;30.45;19.67;;;21.70;53.80;;;;;;5073890;28;20024;-86
2022/11/11 08:57:46;;;;;;;29.77;20.17;;;21.20;55.00;;;;;;5076351;28;20033;-86
2022/11/11 09:00:12;;;;;;;27.77;18.30;;;21.10;55.70;;;;;;5074891;28;20028;-85
2022/11/11 09:02:38;;;;;;;26.27;18.30;;;22.20;54.60;;;;;;5075019;28;20512;-91
2022/11/11 09:05:05;;;;;;;28.38;19.23;;;23.40;52.80;;;;;;5078479;28;20029;-96
2022/11/11 09:07:32;;;;;;;25.67;18.17;;;24.20;51.50;;;;;;5075033;28;20021;-94
2022/11/11 09:09:57;;;;;;;27.30;17.92;;;25.10;51.20;;;;;;5076232;28;20052;-94
2022/11/11 09:12:23;;;;;;;27.88;18.35;;;25.50;50.30;;;;;;5078099;28;20086;-87
2022/11/11 09:14:49;;;;;;;29.45;18.70;;;25.60;50.30;;;;;;5074677;28;20028;-91
2022/11/11 09:17:15;;;;;;;28.02;18.83;;;25.80;49.80;;;;;;5074342;28;20033;-92
2022/11/11 09:19:41;;;;;;;29.27;19.85;;;25.20;49.70;;;;;;5075607;28;20025;-92
2022/11/11 09:22:07;;;;;;;27.48;18.95;;;24.90;50.50;;;;;;5076209;28;20024;-93
2022/11/11 09:24:33;;;;;;;29.42;19.90;;;24.80;50.70;;;;;;5074306;28;20157;-86
2022/11/11 09:26:59;;;;;;;26.80;18.15;;;25.00;50.50;;;;;;5074946;28;20496;-88
2022/11/11 09:29:24;;;;;;;25.95;18.25;;;24.30;51.00;;;;;;5075476;28;20071;-84
2022/11/11 09:31:50;;;;;;;27.17;18.85;;;24.60;51.40;;;;;;5075565;28;20024;-85
2022/11/11 09:34:16;;;;;;;25.20;18.15;;;24.70;51.20;;;;;;5074172;28;20473;-86
2022/11/11 09:36:42;;;;;;;24.98;17.35;;;25.20;50.90;;;;;;5074523;28;20031;-91
2022/11/11 09:39:08;;;;;;;28.55;19.70;;;26.00;50.30;;;;;;5076718;28;20040;-91
2022/11/11 09:42:01;;;;;;;26.67;19.52;;;27.10;49.00;;;;;;5074966;28;20480;-92
2022/11/11 09:44:43;;;;;;;29.50;18.73;;;27.70;48.80;;;;;;5076990;28;20029;-92
2022/11/11 09:47:21;;;;;;;24.45;17.98;;;27.50;48.40;;;;;;5075618;28;20099;-94
2022/11/11 09:50:04;;;;;;;24.20;17.95;;;27.30;48.70;;;;;;5074363;28;20029;-84
2022/11/11 09:52:46;;;;;;;29.08;19.83;;;27.60;48.40;;;;;;5074074;28;20025;-84
2022/11/11 09:55:22;;;;;;;25.55;18.98;;;27.50;48.10;;;;;;5075144;28;20021;-95
2022/11/11 09:57:52;;;;;;;25.23;18.27;;;27.90;48.20;;;;;;5073784;28;20397;-87
2022/11/11 10:00:24;;;;;;;28.08;19.58;;;28.90;47.70;;;;;;5074144;28;20093;-84
2022/11/11 10:02:58;;;;;;;25.88;18.63;;;29.90;46.60;;;;;;5073662;28;20029;-90
2022/11/11 10:05:49;;;;;;;25.38;17.27;;;30.30;46.30;;;;;;5074515;28;20052;-95
2022/11/11 10:08:27;;;;;;;26.52;19.02;;;30.70;45.70;;;;;;5074390;28;20029;-86
2022/11/11 10:10:58;;;;;;;26.48;18.77;;;30.70;45.90;;;;;;5073503;28;20382;-86
2022/11/11 10:13:33;;;;;;;23.88;17.25;;;31.20;45.50;;;;;;5073130;28;20459;-88
2022/11/11 10:16:23;;;;;;;26.35;19.58;;;31.50;45.10;;;;;;5073342;28;20016;-83
2022/11/11 10:18:49;;;;;;;24.33;18.00;;;30.70;45.20;;;;;;5073501;28;20028;-86
2022/11/11 10:21:21;;;;;;;25.17;18.00;;;29.90;45.80;;;;;;5074388;28;20055;-92
2022/11/11 10:23:49;;;;;;;22.77;16.63;;;28.50;46.40;;;;;;5073081;28;20028;-82
2022/11/11 10:26:20;;;;;;;24.60;15.93;;;27.20;47.50;;;;;;5072680;28;20021;-89
2022/11/11 10:28:49;;;;;;;25.90;17.80;;;26.00;49.10;;;;;;5073251;28;20424;-84
2022/11/11 10:31:19;;;;;;;24.92;17.45;;;25.30;50.00;;;;;;5073250;28;20024;-89
2022/11/11 10:33:45;;;;;;;;;;;24.60;50.80;;;;;;5073425;28;20029;-84
2022/11/11 10:36:16;;;;;;;22.83;15.60;;;23.70;51.30;;;;;;5072844;28;19912;-85
2022/11/11 10:39:05;;;;;;;23.27;16.25;;;23.10;52.50;;;;;;5073149;28;20173;-79
2022/11/11 10:41:46;;;;;;;21.65;14.93;;;22.70;53.00;;;;;;5072612;28;20058;-83
2022/11/11 10:44:26;;;;;;;25.92;14.77;;;22.20;53.40;;;;;;5072865;28;20037;-83
2022/11/11 10:47:10;;;;;;;23.52;15.50;;;21.70;54.50;;;;;;5072754;28;20048;-83
2022/11/11 10:49:48;;;;;;;19.02;12.13;;;21.50;54.30;;;;;;5072568;28;20036;-85
2022/11/11 10:52:13;;;;;;;20.95;13.35;;;21.00;55.30;;;;;;5072783;28;20020;-81
2022/11/11 10:55:08;;;;;;;21.08;14.48;;;20.60;56.10;;;;;;5072605;28;20025;-84
2022/11/11 10:57:47;;;;;;;24.40;15.98;;;20.50;56.60;;;;;;5055508;28;20063;-85
2022/11/11 11:00:14;;;;;;;26.00;16.48;;;20.40;56.70;;;;;;5072799;28;20070;-83
2022/11/11 11:03:24;;;;;;;23.25;16.08;;;20.50;57.20;;;;;;5072402;28;20029;-82
2022/11/11 11:06:09;;;;;;;22.30;15.60;;;20.30;57.70;;;;;;5072745;28;20032;-85
2022/11/11 11:08:43;;;;;;;29.58;19.17;;;19.90;58.00;;;;;;5072481;28;20025;-85
2022/11/11 11:11:19;;;;;;;31.08;19.95;;;19.60;59.00;;;;;;5072303;28;20048;-83
2022/11/11 11:13:54;;;;;;;28.70;19.95;;;19.50;59.70;;;;;;5072539;28;20370;-85
2022/11/11 11:16:31;;;;;;;27.80;19.75;;;19.50;59.40;;;;;;5072413;28;20025;-90
2022/11/11 11:19:25;;;;;;;29.38;18.80;;;19.60;59.20;;;;;;5072511;28;20070;-82
2022/11/11 11:21:56;;;;;;;29.92;19.73;;;19.70;59.20;;;;;;5072460;28;20037;-84
2022/11/11 11:24:27;;;;;;;28.55;19.23;;;19.60;59.70;;;;;;5073770;28;20036;-92
2022/11/11 11:26:58;;;;;;;29.83;20.08;;;19.70;59.20;;;;;;5072121;28;20029;-90
2022/11/11 11:29:25;;;;;;;29.00;20.23;;;19.80;59.10;;;;;;5072510;28;20028;-82
2022/11/11 11:31:51;;;;;;;30.55;19.27;;;19.90;58.90;;;;;;5072624;28;20032;-82
2022/11/11 11:34:17;;;;;;;31.95;21.60;;;20.10;58.90;;;;;;5072525;28;20051;-83
2022/11/11 11:36:43;;;;;;;29.98;19.60;;;20.40;57.90;;;;;;5072189;28;20035;-83
2022/11/11 11:39:08;;;;;;;31.02;20.42;;;20.40;57.90;;;;;;5075799;28;20092;-88
2022/11/11 11:41:43;;;;;;;34.53;20.38;;;20.20;58.60;;;;;;5076986;28;20025;-83
2022/11/11 11:44:30;;;;;;;32.72;20.15;;;19.90;58.80;;;;;;5076152;28;20035;-84
2022/11/11 11:47:21;;;;;;;36.58;23.00;;;19.70;59.30;;;;;;5076292;28;20102;-81
2022/11/11 11:50:06;;;;;;;34.92;22.30;;;19.60;59.50;;;;;;5077678;28;20039;-89
2022/11/11 11:53:09;;;;;;;35.65;23.02;;;19.60;60.10;;;;;;5076298;28;20032;-85
2022/11/11 11:55:42;;;;;;;37.50;22.95;;;19.60;60.40;;;;;;5076595;28;20031;-90
2022/11/11 11:58:17;;;;;;;34.55;21.90;;;19.60;59.80;;;;;;5076495;28;20039;-84
2022/11/11 12:00:57;;;;;;;34.20;22.17;;;19.60;60.10;;;;;;5077320;28;20029;-85
2022/11/11 12:03:52;;;;;;;35.20;23.35;;;19.80;60.00;;;;;;5076035;28;20029;-82
2022/11/11 12:06:41;;;;;;;38.55;23.35;;;19.90;59.80;;;;;;5058228;28;20056;-87
2022/11/11 12:09:12;;;;;;;36.13;22.48;;;19.90;59.60;;;;;;5076088;28;20020;-88
2022/11/11 12:12:04;;;;;;;34.60;22.25;;;19.50;60.50;;;;;;5078555;28;20075;-80
2022/11/11 12:14:49;;;;;;;35.47;21.45;;;19.30;60.40;;;;;;5077584;28;20393;-84
2022/11/11 12:17:36;;;;;;;35.08;22.05;;;19.10;60.90;;;;;;5075547;28;20020;-86
2022/11/11 12:20:10;;;;;;;34.78;21.00;;;18.90;61.40;;;;;;5075671;28;20028;-88
2022/11/11 12:22:42;;;;;;;36.03;22.15;;;19.00;61.40;;;;;;5075409;28;20032;-91
2022/11/11 12:25:29;;;;;;;32.28;21.23;;;19.20;61.20;;;;;;5075584;28;20388;-92
2022/11/11 12:28:36;;;;;;;35.42;21.90;;;19.50;60.30;;;;;;5075175;28;20021;-87
2022/11/11 12:31:27;;;;;;;30.45;20.08;;;19.50;60.70;;;;;;5075428;28;20017;-89
2022/11/11 12:34:00;;;;;;;30.90;19.13;;;19.80;60.00;;;;;;4998606;28;20042;-89
2022/11/11 12:36:34;;;;;;;31.45;20.25;;;19.80;59.90;;;;;;5014900;28;20506;-86
2022/11/11 12:39:19;;;;;;;27.90;18.65;;;19.80;59.90;;;;;;5014758;28;20057;-85
2022/11/11 12:41:45;;;;;;;29.48;19.63;;;20.10;59.70;;;;;;5014812;28;20026;-91
2022/11/11 12:44:12;;;;;;;30.30;19.48;;;20.40;59.20;;;;;;5014452;28;20534;-85
2022/11/11 12:46:57;;;;;;;29.02;17.70;;;20.50;58.50;;;;;;4997888;28;20026;-85
2022/11/11 12:49:48;;;;;;;23.60;15.50;;;20.70;57.80;;;;;;4997937;28;20040;-86
2022/11/11 12:52:34;;;;;;;25.88;16.20;;;20.50;58.10;;;;;;4998388;28;20128;-82
2022/11/11 12:55:30;;;;;;;25.30;15.43;;;20.60;57.60;;;;;;5014395;28;20582;-86
2022/11/11 12:58:12;;;;;;;23.73;15.10;;;20.40;57.70;;;;;;5014185;28;20645;-84
2022/11/11 13:01:02;;;;;;;22.17;14.63;;;20.50;57.50;;;;;;5014445;28;20045;-87
2022/11/11 13:03:34;;;;;;;24.80;13.82;;;20.40;57.70;;;;;;5014092;28;20025;-90
2022/11/11 13:06:22;;;;;;;26.48;15.15;;;20.20;57.70;;;;;;5014406;28;20030;-88
2022/11/11 13:08:48;;;;;;;22.00;14.85;;;20.20;58.20;;;;;;4997857;28;20045;-83
2022/11/11 13:11:28;;;;;;;28.42;16.05;;;20.50;57.90;;;;;;5052696;28;20051;-87
2022/11/11 13:14:10;;;;;;;21.70;14.60;;;20.70;57.20;;;;;;5074308;28;20078;-85
2022/11/11 13:16:36;;;;;;;21.20;15.05;;;20.80;56.90;;;;;;5074461;28;20051;-80
2022/11/11 13:19:04;;;;;;;23.05;15.18;;;20.60;56.60;;;;;;5075470;28;20040;-82
2022/11/11 13:21:47;;;;;;;20.65;14.90;;;20.50;57.50;;;;;;5074391;28;20016;-83
2022/11/11 13:24:16;;;;;;;21.40;14.10;;;20.40;57.60;;;;;;5074339;28;20028;-82
2022/11/11 13:26:57;;;;;;;23.65;15.50;;;20.40;57.40;;;;;;5074297;28;20054;-83
2022/11/11 13:30:03;;;;;;;21.77;15.73;;;20.40;57.70;;;;;;5074624;28;20027;-84
2022/11/11 13:32:47;;;;;;;26.13;15.63;;;20.30;57.50;;;;;;5074394;28;20032;-85
2022/11/11 13:35:31;;;;;;;21.25;14.52;;;20.10;58.00;;;;;;5074233;28;20024;-85
2022/11/11 13:37:57;;;;;;;21.48;14.73;;;19.90;58.30;;;;;;5074390;28;20054;-84
2022/11/11 13:40:34;;;;;;;25.15;16.83;;;19.90;58.30;;;;;;5074519;28;20035;-83
2022/11/11 13:43:01;;;;;;;23.85;16.00;;;20.10;58.20;;;;;;5073926;28;20035;-91
2022/11/11 13:45:28;;;;;;;23.70;16.70;;;20.20;58.10;;;;;;5074224;28;20024;-85
2022/11/11 13:47:54;;;;;;;25.38;16.25;;;20.30;57.60;;;;;;5073784;28;20090;-84
2022/11/11 13:50:29;;;;;;;25.45;16.33;;;20.30;57.90;;;;;;5074181;28;20408;-85
2022/11/11 13:53:15;;;;;;;24.50;16.58;;;20.40;57.90;;;;;;5073569;28;20393;-85
2022/11/11 13:55:43;;;;;;;24.33;15.75;;;20.30;58.00;;;;;;5074000;28;20028;-85
2022/11/11 13:58:25;;;;;;;22.63;15.20;;;20.30;58.00;;;;;;5073930;28;20443;-83
2022/11/11 14:01:00;;;;;;;25.02;15.80;;;20.10;58.30;;;;;;5073485;28;20075;-88
2022/11/11 14:03:26;;;;;;;23.30;15.60;;;19.90;58.30;;;;;;5073698;28;20021;-85
2022/11/11 14:06:13;;;;;;;27.33;16.75;;;19.90;58.70;;;;;;5073739;28;20036;-83
2022/11/11 14:08:45;;;;;;;25.27;15.32;;;19.80;58.60;;;;;;5073443;28;20025;-86
2022/11/11 14:11:24;;;;;;;25.27;15.40;;;19.70;58.90;;;;;;5073677;28;20052;-86
2022/11/11 14:13:53;;;;;;;24.88;14.45;;;19.60;58.80;;;;;;5073952;28;20085;-84
2022/11/11 14:16:34;;;;;;;20.38;14.57;;;19.30;59.10;;;;;;5073454;28;20103;-92
2022/11/11 14:19:28;;;;;;;20.92;14.70;;;19.40;59.40;;;;;;5073670;28;20063;-84
2022/11/11 14:21:57;;;;;;;22.15;14.48;;;19.60;58.90;;;;;;5073562;28;20021;-86
2022/11/11 14:24:43;;;;;;;21.45;13.27;;;19.90;58.60;;;;;;5073448;28;20028;-85
2022/11/11 14:27:09;;;;;;;19.92;12.13;;;19.80;58.50;;;;;;5073115;28;20020;-85